createdAt,value
2023-01-23T06:31:57.778Z,21.40
2023-01-23T06:34:26.000Z,21.43
2023-01-23T06:36:57.607Z,21.63
2023-01-23T06:39:25.262Z,21.90
2023-01-23T06:41:54.300Z,22.83
2023-01-23T06:44:23.783Z,22.60
2023-01-23T06:46:53.081Z,22.57
2023-01-23T06:49:22.854Z,23.00
2023-01-23T06:51:50.162Z,22.73
2023-01-23T06:54:18.566Z,22.23
2023-01-23T06:56:46.031Z,22.93
2023-01-23T06:59:13.834Z,22.93
2023-01-23T07:01:41.938Z,23.27
2023-01-23T07:04:18.319Z,23.27
2023-01-23T07:06:48.130Z,22.23
2023-01-23T07:09:17.356Z,22.70
2023-01-23T07:11:51.513Z,22.53
2023-01-23T07:14:18.889Z,23.57
2023-01-23T07:16:49.802Z,23.07
2023-01-23T07:19:17.230Z,22.13
2023-01-23T07:21:45.157Z,23.83
2023-01-23T07:24:12.519Z,22.27
2023-01-23T07:26:39.840Z,22.50
2023-01-23T07:29:09.154Z,23.20
2023-01-23T07:31:36.927Z,23.67
2023-01-23T07:34:04.337Z,23.43
2023-01-23T07:36:31.783Z,24.53
2023-01-23T07:38:59.134Z,23.40
2023-01-23T07:41:26.490Z,23.67
2023-01-23T07:43:53.813Z,23.50
2023-01-23T07:46:23.846Z,25.73
2023-01-23T07:48:51.548Z,24.37
2023-01-23T07:51:19.022Z,24.97
2023-01-23T07:53:46.334Z,24.70
2023-01-23T07:56:13.655Z,24.47
2023-01-23T07:58:41.996Z,23.70
2023-01-23T08:01:10.695Z,23.40
2023-01-23T08:03:38.123Z,23.67
2023-01-23T08:06:05.659Z,22.83
2023-01-23T08:08:32.979Z,23.20
2023-01-23T08:11:00.456Z,24.27
2023-01-23T08:13:27.974Z,23.83
2023-01-23T08:15:56.103Z,23.70
2023-01-23T08:18:55.951Z,24.20
2023-01-23T08:21:23.509Z,23.23
2023-01-23T08:23:51.016Z,23.90
2023-01-23T08:26:18.905Z,23.70
2023-01-23T08:28:48.412Z,24.13
2023-01-23T08:31:18.223Z,23.73
2023-01-23T08:33:45.642Z,23.43
2023-01-23T08:36:14.219Z,23.87
2023-01-23T08:38:41.758Z,24.20
2023-01-23T08:41:11.767Z,24.30
2023-01-23T08:43:41.688Z,24.57
2023-01-23T08:46:09.909Z,24.70
2023-01-23T08:48:37.470Z,25.53
2023-01-23T08:51:06.697Z,26.13
2023-01-23T08:53:34.406Z,25.03
2023-01-23T08:56:06.070Z,24.37
2023-01-23T08:58:35.026Z,25.83
2023-01-23T09:01:02.563Z,25.33
2023-01-23T10:11:36.853Z,25.87
2023-01-23T10:14:36.566Z,27.07
2023-01-23T10:17:04.099Z,33.60
2023-01-23T10:19:40.387Z,29.33
2023-01-23T10:22:26.368Z,27.40
2023-01-23T10:24:55.989Z,26.40
2023-01-23T10:27:24.674Z,26.07
2023-01-23T10:30:00.219Z,25.30
2023-01-23T10:32:28.964Z,26.40
2023-01-23T10:35:28.847Z,25.67
2023-01-23T10:38:01.870Z,25.43
2023-01-23T10:40:47.899Z,25.47
2023-01-23T10:43:19.377Z,26.10
2023-01-23T10:45:48.314Z,24.83
2023-01-23T10:48:40.401Z,26.70
2023-01-23T10:51:26.831Z,26.63
2023-01-23T10:54:19.412Z,22.87
2023-01-23T10:57:21.279Z,25.37
2023-01-23T10:59:51.390Z,23.43
2023-01-23T11:02:20.488Z,24.13
2023-01-23T11:04:51.615Z,24.43
2023-01-23T11:07:19.046Z,23.90
2023-01-23T11:09:48.477Z,23.57
2023-01-23T11:12:21.999Z,23.73
2023-01-23T11:14:51.017Z,24.43
2023-01-23T11:17:23.073Z,27.43
2023-01-23T11:19:53.620Z,27.70
2023-01-23T11:22:27.007Z,27.23
2023-01-23T11:24:54.588Z,26.23
2023-01-23T11:27:28.063Z,28.33
2023-01-23T11:29:55.406Z,24.90
2023-01-23T11:32:24.605Z,24.50
2023-01-23T11:34:53.591Z,24.03
2023-01-23T11:37:20.884Z,24.33
2023-01-23T11:40:15.121Z,23.50
2023-01-23T11:42:45.192Z,24.97
2023-01-23T11:45:31.106Z,23.07
2023-01-23T11:48:04.350Z,26.13
2023-01-23T11:50:53.695Z,24.20
2023-01-23T11:53:36.700Z,23.40
2023-01-23T11:56:18.141Z,24.07
2023-01-23T11:58:51.658Z,24.17
2023-01-23T12:01:19.048Z,24.47
2023-01-23T12:04:04.086Z,22.10
2023-01-23T12:06:55.249Z,25.50
2023-01-23T12:09:22.733Z,23.87
2023-01-23T12:11:50.097Z,25.00
2023-01-23T12:14:17.490Z,23.63
2023-01-23T12:16:48.131Z,24.40
2023-01-23T12:19:15.606Z,24.60
2023-01-23T12:21:42.888Z,25.07
2023-01-23T12:24:18.652Z,25.30
2023-01-23T12:26:56.222Z,26.63
2023-01-23T12:29:42.051Z,26.50
2023-01-23T12:32:15.361Z,25.57
2023-01-23T12:34:49.875Z,27.20
2023-01-23T12:37:30.037Z,27.13
2023-01-23T12:39:58.642Z,28.07
2023-01-23T12:42:41.487Z,27.33
2023-01-23T12:45:11.830Z,27.17
2023-01-23T12:47:41.572Z,25.90
2023-01-23T12:50:32.351Z,27.53
2023-01-23T12:53:02.042Z,27.07
2023-01-23T12:55:47.957Z,26.97
2023-01-23T12:58:16.879Z,49.23
2023-01-23T13:00:51.802Z,28.33
2023-01-23T13:03:47.028Z,26.70
2023-01-23T13:06:20.091Z,33.90
2023-01-23T13:09:02.433Z,26.10
2023-01-23T13:11:44.932Z,25.30
2023-01-23T13:14:39.583Z,24.13
2023-01-23T13:17:30.077Z,24.37
2023-01-23T13:20:34.303Z,24.90
2023-01-23T13:23:22.004Z,23.83
2023-01-23T13:25:50.225Z,24.53
2023-01-23T13:28:44.001Z,25.73
2023-01-23T13:31:28.799Z,25.87
2023-01-23T13:34:06.702Z,30.80
2023-01-23T13:36:38.070Z,26.87
2023-01-23T13:39:19.791Z,27.03
2023-01-23T13:42:05.841Z,28.40
2023-01-23T13:44:41.851Z,28.33
2023-01-23T14:21:52.373Z,26.97
2023-01-23T14:24:24.111Z,29.80
2023-01-23T14:26:52.768Z,26.60
2023-01-23T14:29:24.376Z,25.93
2023-01-23T14:31:52.016Z,26.70
2023-01-23T14:34:21.057Z,27.23
2023-01-23T14:36:53.200Z,26.60
2023-01-23T14:39:25.451Z,26.50
2023-01-23T14:41:55.888Z,26.60
2023-01-23T14:44:25.624Z,25.83
2023-01-23T14:46:54.778Z,26.43
2023-01-23T14:49:27.868Z,27.10
2023-01-23T14:52:02.573Z,27.63
2023-01-23T14:54:33.239Z,25.53
2023-01-23T14:57:05.656Z,26.63
2023-01-23T14:59:37.972Z,26.47
2023-01-23T15:02:25.275Z,27.07
2023-01-23T15:05:07.979Z,26.63
2023-01-23T15:07:36.308Z,27.33
2023-01-23T15:10:03.761Z,26.43
2023-01-23T15:12:31.101Z,26.90
2023-01-23T15:14:58.592Z,26.57
2023-01-23T15:17:25.943Z,27.00
2023-01-23T15:19:59.490Z,27.23
2023-01-23T15:22:28.727Z,27.03
2023-01-23T15:24:56.565Z,26.80
2023-01-23T15:27:25.560Z,27.57
2023-01-23T15:29:53.776Z,26.97
2023-01-23T15:32:24.925Z,26.87
2023-01-23T15:34:53.965Z,27.47
2023-01-23T15:37:23.293Z,27.77
2023-01-23T15:39:52.064Z,26.27
2023-01-23T15:42:19.361Z,26.10
2023-01-23T15:44:46.849Z,27.30
2023-01-23T15:47:14.447Z,26.80
2023-01-23T15:49:41.812Z,26.97
2023-01-23T15:52:28.848Z,27.90
2023-01-23T15:54:59.367Z,27.70
2023-01-23T15:57:26.888Z,27.50
2023-01-23T15:59:54.211Z,27.80
2023-01-23T16:02:30.713Z,28.07
2023-01-23T16:05:01.132Z,27.00
2023-01-23T16:07:44.788Z,27.73
2023-01-23T16:10:23.166Z,28.13
2023-01-23T16:12:51.580Z,26.73
2023-01-23T16:15:23.301Z,27.57
2023-01-23T16:17:53.278Z,28.37
2023-01-23T16:20:21.934Z,26.83
2023-01-23T16:22:54.301Z,28.37
2023-01-23T16:25:23.604Z,28.40
2023-01-23T16:27:55.764Z,27.73
2023-01-23T16:30:32.852Z,27.10
2023-01-23T16:33:04.045Z,27.53
2023-01-23T16:35:32.971Z,26.50
2023-01-23T16:38:02.071Z,26.70
2023-01-23T16:40:31.840Z,26.90
2023-01-23T16:43:02.733Z,27.83
2023-01-23T16:45:31.162Z,27.03
2023-01-23T16:48:07.470Z,27.67
2023-01-23T16:50:44.388Z,26.70
2023-01-23T16:53:41.258Z,27.50
2023-01-23T16:56:15.629Z,28.70
2023-01-23T16:58:43.490Z,28.77
2023-01-23T17:01:23.048Z,28.90
2023-01-23T17:04:01.306Z,29.00
2023-01-23T17:06:29.279Z,28.83
2023-01-23T17:09:04.249Z,29.47
2023-01-23T17:11:46.202Z,29.03
2023-01-23T17:15:19.957Z,29.60
2023-01-23T17:17:48.933Z,29.17
2023-01-23T17:20:16.322Z,29.17
2023-01-23T17:23:15.793Z,29.60
2023-01-23T17:26:00.865Z,30.40
2023-01-23T17:28:29.188Z,30.03
2023-01-23T17:30:58.004Z,30.77
2023-01-23T17:33:27.183Z,31.40
2023-01-23T17:35:54.713Z,31.50
2023-01-23T17:38:26.479Z,32.83
2023-01-23T17:40:55.303Z,31.83
2023-01-23T17:43:22.785Z,33.00
2023-01-23T17:45:51.623Z,32.43
2023-01-23T17:48:30.103Z,33.40
2023-01-23T17:50:57.757Z,32.70
2023-01-23T17:53:27.889Z,32.83
2023-01-23T17:55:55.419Z,32.97
2023-01-23T17:58:28.319Z,33.13
2023-01-23T18:00:59.543Z,33.07
2023-01-23T18:03:27.513Z,32.13
2023-01-23T18:05:54.981Z,33.40
2023-01-23T18:08:23.015Z,32.50
2023-01-23T18:10:53.641Z,32.43
2023-01-23T18:13:26.962Z,33.67
2023-01-23T18:16:13.638Z,33.43
2023-01-23T18:18:42.889Z,33.87
2023-01-23T18:21:20.036Z,32.30
2023-01-23T18:23:48.139Z,33.97
2023-01-23T18:26:34.332Z,33.50
2023-01-23T18:29:16.703Z,34.00
2023-01-23T18:31:56.354Z,34.03
2023-01-23T18:34:45.361Z,33.20
2023-01-23T18:37:33.885Z,33.63
2023-01-23T18:40:25.168Z,34.27
2023-01-23T18:42:59.476Z,32.33
2023-01-23T18:45:28.287Z,33.10
2023-01-23T18:47:58.052Z,35.03
2023-01-23T18:50:27.081Z,33.77
2023-01-23T18:52:55.410Z,33.00
2023-01-23T18:55:52.547Z,32.33
2023-01-23T18:58:28.262Z,34.03
2023-01-23T19:01:03.356Z,33.67
2023-01-23T19:03:38.237Z,35.13
2023-01-23T19:06:12.961Z,34.50
2023-01-23T19:08:42.720Z,33.93
2023-01-23T19:11:19.924Z,34.67
2023-01-23T19:13:56.787Z,34.87
2023-01-23T19:16:36.407Z,33.83
2023-01-23T19:19:16.897Z,36.07
2023-01-23T19:21:47.323Z,35.13
2023-01-23T19:24:16.119Z,34.83
2023-01-23T19:26:43.633Z,34.80
2023-01-23T19:29:21.472Z,34.50
2023-01-23T19:32:03.701Z,36.03
2023-01-23T19:34:33.982Z,35.37
2023-01-23T19:37:03.401Z,34.33
2023-01-23T19:39:30.920Z,35.33
2023-01-23T19:41:59.554Z,36.57
2023-01-23T19:44:45.326Z,35.73
2023-01-23T19:47:13.259Z,36.73
2023-01-23T19:49:41.184Z,36.87
2023-01-23T19:52:14.196Z,38.53
2023-01-23T19:54:41.786Z,36.20
2023-01-23T19:57:09.120Z,35.20
2023-01-23T19:59:37.119Z,36.63
2023-01-23T20:02:05.594Z,35.80
2023-01-23T20:04:33.031Z,35.10
2023-01-23T20:07:02.948Z,35.20
2023-01-23T20:09:30.507Z,47.23
2023-01-23T20:11:59.429Z,41.27
2023-01-23T20:14:27.392Z,35.23
2023-01-23T20:16:55.001Z,34.07
2023-01-23T20:19:23.739Z,34.10
2023-01-23T20:21:51.096Z,35.63
2023-01-23T20:24:18.601Z,34.53
2023-01-23T20:26:47.232Z,34.27
2023-01-23T20:29:15.553Z,34.97
2023-01-23T20:31:44.418Z,33.13
2023-01-23T20:34:17.475Z,35.10
2023-01-23T20:36:45.343Z,35.03
2023-01-23T20:39:13.551Z,35.20
2023-01-23T20:41:41.100Z,37.00
2023-01-23T20:44:09.658Z,36.33
2023-01-23T20:46:37.635Z,36.03
2023-01-23T20:49:05.340Z,38.23
2023-01-23T20:51:32.937Z,34.60
2023-01-23T20:54:01.172Z,36.67
2023-01-23T20:56:31.794Z,36.47
2023-01-23T20:59:17.815Z,33.80
2023-01-23T21:02:05.403Z,35.10
2023-01-23T21:04:34.188Z,35.37
2023-01-23T21:07:05.542Z,37.10
2023-01-23T21:09:33.003Z,37.70
2023-01-23T21:12:00.694Z,36.73
2023-01-23T21:14:28.154Z,36.23
2023-01-23T21:16:55.630Z,37.30
2023-01-23T21:19:30.284Z,35.73
2023-01-23T21:21:58.944Z,35.23
2023-01-23T21:24:26.650Z,36.03
2023-01-23T21:26:54.296Z,38.33
2023-01-23T21:29:21.909Z,35.47
2023-01-23T21:31:52.227Z,36.90
2023-01-23T21:34:20.712Z,36.17
2023-01-23T21:36:48.381Z,36.73
2023-01-23T21:39:17.405Z,37.57
2023-01-23T21:41:46.349Z,37.43
2023-01-23T21:44:15.756Z,36.63
2023-01-23T21:46:43.364Z,36.93
2023-01-23T21:49:13.166Z,36.77
2023-01-23T21:51:45.898Z,37.83
2023-01-23T21:54:15.821Z,36.90
2023-01-23T21:56:44.765Z,36.40
2023-01-23T21:59:12.372Z,37.40
2023-01-23T22:01:42.735Z,36.73
2023-01-23T22:04:14.875Z,36.90
2023-01-23T22:06:43.384Z,36.03
2023-01-23T22:09:14.593Z,36.50
2023-01-23T22:11:42.847Z,36.87
2023-01-23T22:14:10.870Z,37.07
2023-01-23T22:16:52.832Z,36.57
2023-01-23T22:19:24.983Z,43.93
2023-01-23T22:21:57.195Z,38.17
2023-01-23T22:24:24.704Z,36.00
2023-01-23T22:26:52.550Z,35.20
2023-01-23T22:29:19.929Z,37.17
2023-01-23T22:31:47.459Z,36.33
2023-01-23T22:34:15.117Z,36.50
2023-01-23T22:36:42.441Z,36.53
2023-01-23T22:39:09.967Z,38.13
2023-01-23T22:41:37.608Z,38.23
2023-01-23T22:44:07.774Z,37.57
2023-01-23T22:46:35.423Z,37.33
2023-01-23T22:49:03.049Z,36.83
2023-01-23T22:51:30.407Z,36.03
2023-01-23T22:53:58.583Z,36.37
2023-01-23T22:56:27.118Z,37.93
2023-01-23T22:58:55.317Z,35.53
2023-01-23T23:01:24.436Z,35.83
2023-01-23T23:03:52.104Z,36.33
2023-01-23T23:06:19.868Z,35.67
2023-01-23T23:08:48.191Z,35.87
2023-01-23T23:11:16.872Z,35.53
2023-01-23T23:13:44.425Z,36.27
2023-01-23T23:16:20.760Z,35.37
2023-01-23T23:18:48.787Z,36.20
2023-01-23T23:21:17.523Z,35.37
2023-01-23T23:23:45.336Z,35.87
2023-01-23T23:26:13.574Z,36.30
2023-01-23T23:28:41.199Z,36.17
2023-01-23T23:31:09.372Z,37.87
2023-01-23T23:33:37.356Z,37.40
2023-01-23T23:36:04.972Z,36.13
2023-01-23T23:38:33.116Z,36.17
2023-01-23T23:41:02.348Z,35.77
